Time;durP1;ratioP1;P1;durP2;ratioP2;P2;SDS_P1;SDS_P2;PMS_P1;PMS_P2;Temp;Humidity;BMP_temperature;BMP_pressure;BME280_temperature;BME280_humidity;BME280_pressure;Samples;Min_cycle;Max_cycle;Signal;HPM_P1;HPM_P2
2022/01/03 00:02:03;;;;;;;;;;;8.60;99.90;;;;;;5071947;28;19999;-86
2022/01/03 00:04:28;;;;;;;;;;;8.70;99.90;;;;;;5071258;28;20339;-82
2022/01/03 00:06:57;;;;;;;;;;;8.70;99.90;;;;;;5071726;28;19916;-87
2022/01/03 00:09:23;;;;;;;;;;;8.70;99.90;;;;;;5070828;28;19927;-84
2022/01/03 00:11:48;;;;;;;;;;;8.60;99.90;;;;;;5071737;28;19910;-80
2022/01/03 00:14:14;;;;;;;;;;;8.60;99.90;;;;;;5071443;28;20624;-81
2022/01/03 00:16:39;;;;;;;;;;;8.60;99.90;;;;;;5070561;28;19947;-88
2022/01/03 00:19:06;;;;;;;;;;;8.50;99.90;;;;;;5071107;28;19913;-86
2022/01/03 00:21:39;;;;;;;;;;;8.50;99.90;;;;;;5067527;28;19978;-88
2022/01/03 00:24:06;;;;;;;;;;;8.50;99.90;;;;;;5072168;28;19908;-87
2022/01/03 00:26:34;;;;;;;;;;;8.50;99.90;;;;;;5079555;28;20568;-88
2022/01/03 00:29:09;;;;;;;;;;;8.50;99.90;;;;;;5070590;28;19927;-86
2022/01/03 00:31:39;;;;;;;;;;;8.50;99.90;;;;;;5069568;28;19961;-82
2022/01/03 00:34:05;;;;;;;;;;;8.40;99.90;;;;;;5072524;28;19908;-82
2022/01/03 00:36:31;;;;;;;;;;;8.50;99.90;;;;;;5070821;28;20363;-80
2022/01/03 00:38:57;;;;;;;;;;;8.30;99.90;;;;;;5071057;28;20351;-81
2022/01/03 00:41:23;;;;;;;;;;;8.40;99.90;;;;;;5071173;28;19912;-80
2022/01/03 00:43:53;;;;;;;;;;;8.50;99.90;;;;;;5072571;28;19954;-80
2022/01/03 00:46:18;;;;;;;;;;;8.50;99.90;;;;;;5073328;28;19924;-80
2022/01/03 00:48:44;;;;;;;;;;;8.50;99.90;;;;;;5076515;28;19912;-80
2022/01/03 00:51:13;;;;;;;;;;;8.50;99.90;;;;;;5076472;28;19915;-87
2022/01/03 00:53:39;;;;;;;;;;;8.60;99.90;;;;;;5076297;28;19999;-85
2022/01/03 00:56:09;;;;;;;;;;;8.50;99.90;;;;;;5076269;28;19970;-88
2022/01/03 00:58:36;;;;;;;;;;;8.20;99.90;;;;;;5076330;28;20355;-81
2022/01/03 01:01:03;;;;;;;;;;;8.40;99.90;;;;;;5058123;28;19947;-80
2022/01/03 01:03:33;;;;;;;;;;;8.60;99.90;;;;;;5075935;28;19917;-80
2022/01/03 01:06:01;;;;;;;;;;;8.60;99.90;;;;;;5076174;28;20413;-88
2022/01/03 01:08:28;;;;;;;;;;;8.60;99.90;;;;;;5075967;28;19916;-83
2022/01/03 01:10:55;;;;;;;;;;;8.40;99.90;;;;;;5075487;28;20270;-83
2022/01/03 01:13:21;;;;;;;;;;;8.60;99.90;;;;;;5075695;28;19908;-88
2022/01/03 01:15:47;;;;;;;;;;;8.70;99.90;;;;;;5076050;28;19912;-86
2022/01/03 01:18:12;;;;;;;;;;;8.70;99.90;;;;;;5075945;28;19909;-81
2022/01/03 01:20:39;;;;;;;;;;;8.60;99.90;;;;;;5075859;28;20419;-84
2022/01/03 01:23:06;;;;;;;;;;;8.60;99.90;;;;;;5075505;28;19919;-81
2022/01/03 01:28:03;;;;;;;;;;;8.40;99.90;;;;;;5075850;28;19908;-80
2022/01/03 01:30:29;;;;;;;;;;;8.40;99.90;;;;;;5056322;28;20263;-89
2022/01/03 01:33:03;;;;;;;;;;;8.50;99.90;;;;;;5072793;28;19920;-88
2022/01/03 01:35:31;;;;;;;;;;;8.50;99.90;;;;;;5073749;28;20400;-80
2022/01/03 01:37:59;;;;;;;;;;;8.50;99.90;;;;;;5091299;28;19909;-81
2022/01/03 01:40:25;;;;;;;;;;;8.50;99.90;;;;;;5075015;28;19915;-81
2022/01/03 01:42:52;;;;;;;;;;;8.50;99.90;;;;;;5075479;28;19955;-85
2022/01/03 01:45:21;;;;;;;;;;;8.60;99.90;;;;;;5075534;28;19991;-81
2022/01/03 01:47:47;;;;;;;;;;;9.00;99.90;;;;;;5075422;28;19954;-84
2022/01/03 01:50:13;;;;;;;;;;;9.20;99.90;;;;;;5075252;28;19984;-81
2022/01/03 01:52:38;;;;;;;;;;;9.10;99.90;;;;;;5075420;28;19944;-82
2022/01/03 01:55:09;;;;;;;;;;;9.20;99.90;;;;;;5075249;28;20358;-85
2022/01/03 01:57:53;;;;;;;;;;;9.10;99.90;;;;;;5074604;28;19908;-87
2022/01/03 02:00:19;;;;;;;;;;;8.80;99.90;;;;;;5075130;28;20412;-81
2022/01/03 02:02:45;;;;;;;;;;;;;;;;;;5075136;28;19908;-82
2022/01/03 02:05:28;;;;;;;;;;;8.30;99.90;;;;;;5075026;28;19915;-84
2022/01/03 02:07:54;;;;;;;;;;;8.40;99.90;;;;;;5074657;28;19908;-86
2022/01/03 02:10:24;;;;;;;;;;;8.60;99.90;;;;;;5074451;28;19908;-81
2022/01/03 02:12:49;;;;;;;;;;;8.70;99.90;;;;;;5070664;28;19935;-81
2022/01/03 02:15:17;;;;;;;;;;;8.80;99.90;;;;;;5074734;28;19916;-81
2022/01/03 02:17:44;;;;;;;;;;;8.70;99.90;;;;;;5074705;28;20263;-81
2022/01/03 02:20:23;;;;;;;;;;;8.60;99.90;;;;;;5074616;28;19969;-81
2022/01/03 02:22:49;;;;;;;;;;;8.60;99.90;;;;;;5090116;28;19919;-85
2022/01/03 02:25:16;;;;;;;;;;;8.70;99.90;;;;;;5074404;28;19915;-88
2022/01/03 02:27:43;;;;;;;;;;;8.80;99.90;;;;;;5074381;28;19919;-83
2022/01/03 02:30:11;;;;;;;;;;;8.80;99.90;;;;;;5074506;28;19983;-88
2022/01/03 02:32:37;;;;;;;;;;;8.80;99.90;;;;;;5074862;28;19975;-82
2022/01/03 02:35:03;;;;;;;;;;;8.80;99.90;;;;;;5074408;28;19915;-81
2022/01/03 02:37:29;;;;;;;;;;;8.90;99.90;;;;;;5074122;28;19909;-81
2022/01/03 02:39:55;;;;;;;;;;;8.80;99.90;;;;;;5074168;28;19908;-89
2022/01/03 02:42:25;;;;;;;;;;;8.80;99.90;;;;;;5074320;28;19956;-84
2022/01/03 02:45:00;;;;;;;;;;;8.80;99.90;;;;;;5073639;28;19962;-81
2022/01/03 02:47:25;;;;;;;;;;;8.80;99.90;;;;;;5074203;28;19962;-89
2022/01/03 02:49:51;;;;;;;;;;;8.90;99.90;;;;;;5073982;28;20244;-88
2022/01/03 02:52:17;;;;;;;;;;;8.80;99.90;;;;;;5073867;28;19958;-89
2022/01/03 02:54:43;;;;;;;;;;;8.80;99.90;;;;;;5073832;28;19952;-81
2022/01/03 02:57:08;;;;;;;;;;;8.60;99.90;;;;;;5074124;28;20244;-81
2022/01/03 02:59:34;;;;;;;;;;;8.40;99.90;;;;;;5074066;28;20007;-82
2022/01/03 03:02:00;;;;;;;;;;;8.40;99.90;;;;;;5089441;28;19995;-81
2022/01/03 03:04:25;;;;;;;;;;;8.40;99.90;;;;;;5056049;28;19937;-87
2022/01/03 03:06:51;;;;;;;;;;;8.40;99.90;;;;;;5074026;28;19982;-81
2022/01/03 03:09:16;;;;;;;;;;;8.50;99.90;;;;;;5073591;28;20405;-82
2022/01/03 03:11:42;;;;;;;;;;;8.50;99.90;;;;;;5072984;28;19944;-81
2022/01/03 03:14:08;;;;;;;;;;;8.50;99.90;;;;;;5073464;28;19958;-81
2022/01/03 03:16:34;;;;;;;;;;;8.60;99.90;;;;;;5073887;28;19912;-81
2022/01/03 03:18:59;;;;;;;;;;;8.60;99.90;;;;;;5073815;28;19913;-81
2022/01/03 03:21:28;;;;;;;;;;;8.50;99.90;;;;;;5073571;28;19935;-90
2022/01/03 03:23:53;;;;;;;;;;;8.40;99.90;;;;;;5072907;28;19912;-83
2022/01/03 03:26:19;;;;;;;;;;;8.40;99.90;;;;;;5073224;28;19908;-81
2022/01/03 03:28:44;;;;;;;;;;;8.40;99.90;;;;;;5072917;28;19922;-87
2022/01/03 03:31:10;;;;;;;;;;;8.60;99.90;;;;;;5073208;28;19915;-81
2022/01/03 03:33:36;;;;;;;;;;;8.60;99.90;;;;;;5073048;28;19954;-81
2022/01/03 03:36:02;;;;;;;;;;;8.80;99.90;;;;;;5073454;28;19908;-80
2022/01/03 03:38:28;;;;;;;;;;;8.80;99.90;;;;;;5072987;28;19923;-81
2022/01/03 03:40:55;;;;;;;;;;;8.90;99.90;;;;;;5072308;28;20002;-83
2022/01/03 03:43:20;;;;;;;;;;;8.90;99.90;;;;;;5073390;28;19908;-88
2022/01/03 03:45:48;;;;;;;;;;;9.00;99.90;;;;;;5073462;28;19915;-84
2022/01/03 03:48:14;;;;;;;;;;;9.00;99.90;;;;;;5073456;28;19917;-85
2022/01/03 03:50:40;;;;;;;;;;;8.90;99.90;;;;;;5073262;28;20385;-81
2022/01/03 03:53:06;;;;;;;;;;;8.90;99.90;;;;;;5073215;28;20313;-82
2022/01/03 03:55:32;;;;;;;;;;;9.00;99.90;;;;;;5073358;28;19908;-86
2022/01/03 03:57:58;;;;;;;;;;;9.10;99.90;;;;;;5073235;28;19912;-82
2022/01/03 04:00:24;;;;;;;;;;;9.20;99.90;;;;;;5072762;28;19908;-81
2022/01/03 04:02:49;;;;;;;;;;;9.10;99.90;;;;;;5073095;28;20377;-81
2022/01/03 04:05:15;;;;;;;;;;;9.00;99.90;;;;;;5073098;28;19919;-81
2022/01/03 04:07:41;;;;;;;;;;;8.90;99.90;;;;;;5072942;28;19908;-82
2022/01/03 04:10:07;;;;;;;;;;;9.00;99.90;;;;;;5072874;28;19920;-81
2022/01/03 04:12:33;;;;;;;;;;;9.10;99.90;;;;;;5072786;28;19909;-87
2022/01/03 04:14:59;;;;;;;;;;;9.20;99.90;;;;;;5072897;28;19954;-82
2022/01/03 04:17:24;;;;;;;;;;;9.20;99.90;;;;;;5073116;28;20431;-82
2022/01/03 04:19:50;;;;;;;;;;;9.30;99.90;;;;;;5073124;28;19919;-84
2022/01/03 04:22:15;;;;;;;;;;;9.20;99.90;;;;;;5075311;28;19912;-85
2022/01/03 04:24:41;;;;;;;;;;;9.30;99.90;;;;;;5077019;28;19926;-81
2022/01/03 04:27:07;;;;;;;;;;;9.30;99.90;;;;;;5076984;28;19908;-83
2022/01/03 04:29:32;;;;;;;;;;;9.40;99.90;;;;;;5076799;28;19923;-85
2022/01/03 04:31:58;;;;;;;;;;;9.30;99.90;;;;;;5076304;28;19919;-86
2022/01/03 04:34:24;;;;;;;;;;;9.30;99.90;;;;;;5076888;28;20327;-83
2022/01/03 04:36:49;;;;;;;;;;;9.30;99.90;;;;;;5076603;28;20378;-85
2022/01/03 04:39:15;;;;;;;;;;;9.10;99.90;;;;;;5076767;28;20002;-85
2022/01/03 04:41:41;;;;;;;;;;;9.10;99.90;;;;;;5076750;28;19912;-82
2022/01/03 04:44:07;;;;;;;;;;;9.10;99.90;;;;;;5076688;28;19908;-82
2022/01/03 04:46:33;;;;;;;;;;;9.10;99.90;;;;;;5076542;28;19908;-86
2022/01/03 04:48:59;;;;;;;;;;;9.10;99.90;;;;;;5076513;28;20268;-81
2022/01/03 04:51:25;;;;;;;;;;;9.10;99.90;;;;;;5076250;28;19961;-86
2022/01/03 04:53:51;;;;;;;;;;;9.00;99.90;;;;;;5076308;28;19919;-81
2022/01/03 04:56:16;;;;;;;;;;;9.00;99.90;;;;;;5076445;28;20275;-82
2022/01/03 04:58:42;;;;;;;;;;;8.80;99.90;;;;;;5076262;28;19912;-83
2022/01/03 05:01:08;;;;;;;;;;;8.80;99.90;;;;;;5075860;28;19936;-81
2022/01/03 05:03:34;;;;;;;;;;;8.90;99.90;;;;;;5073935;28;19915;-81
2022/01/03 05:06:01;;;;;;;;;;;9.10;99.90;;;;;;5076096;28;19935;-81
2022/01/03 05:08:27;;;;;;;;;;;9.10;99.90;;;;;;5076107;28;19923;-81
2022/01/03 05:10:53;;;;;;;;;;;9.30;99.90;;;;;;5076040;28;19913;-85
2022/01/03 05:13:18;;;;;;;;;;;9.30;99.90;;;;;;5057762;28;20260;-87
2022/01/03 05:15:44;;;;;;;;;;;9.30;99.90;;;;;;5075783;28;19909;-81
2022/01/03 05:18:10;;;;;;;;;;;9.40;99.90;;;;;;5091270;28;20378;-81
2022/01/03 05:20:35;;;;;;;;;;;9.50;99.90;;;;;;5075685;28;19915;-82
2022/01/03 05:23:01;;;;;;;;;;;9.50;99.90;;;;;;5075803;28;19908;-81
2022/01/03 05:25:26;;;;;;;;;;;9.50;99.90;;;;;;5075764;28;20355;-81
2022/01/03 05:27:53;;;;;;;;;;;9.20;99.90;;;;;;5075365;28;19950;-81
2022/01/03 05:30:20;;;;;;;;;;;8.80;99.90;;;;;;5090772;28;19916;-83
2022/01/03 05:32:46;;;;;;;;;;;8.50;99.90;;;;;;5073527;28;19916;-82
2022/01/03 05:35:11;;;;;;;;;;;8.50;99.90;;;;;;5072051;28;19909;-82
2022/01/03 05:37:37;;;;;;;;;;;8.50;99.90;;;;;;5073221;28;20374;-81
2022/01/03 05:40:03;;;;;;;;;;;8.50;99.90;;;;;;5072093;28;19912;-81
2022/01/03 05:42:29;;;;;;;;;;;8.50;99.90;;;;;;5067440;28;19908;-84
2022/01/03 05:44:55;;;;;;;;;;;8.40;99.90;;;;;;5074988;28;19908;-81
2022/01/03 05:47:21;;;;;;;;;;;8.30;99.90;;;;;;5074006;28;19916;-83
2022/01/03 05:49:46;;;;;;;;;;;8.30;99.90;;;;;;5074371;28;19920;-80
2022/01/03 05:52:12;;;;;;;;;;;8.20;99.90;;;;;;5075713;28;19970;-81
2022/01/03 05:54:38;;;;;;;;;;;8.30;99.90;;;;;;5075402;28;19923;-81
2022/01/03 05:57:03;;;;;;;;;;;8.30;99.90;;;;;;5075389;28;20019;-84
2022/01/03 05:59:29;;;;;;;;;;;8.30;99.90;;;;;;5075407;28;19919;-83
2022/01/03 06:01:55;;;;;;;;;;;8.30;99.90;;;;;;5075381;28;19908;-82
2022/01/03 06:04:23;;;;;;;;;;;8.30;99.90;;;;;;5074562;28;19915;-81
2022/01/03 06:07:09;;;;;;;;;;;8.80;99.90;;;;;;5074739;28;20428;-81
2022/01/03 06:09:35;;;;;;;;;;;8.70;99.90;;;;;;5074074;28;20015;-84
2022/01/03 06:12:01;;;;;;;;;;;8.90;99.90;;;;;;5074468;28;19961;-84
2022/01/03 06:14:27;;;;;;;;;;;8.70;99.90;;;;;;5074823;28;19912;-84
2022/01/03 06:16:53;;;;;;;;;;;8.50;99.90;;;;;;5074586;28;19935;-83
2022/01/03 06:19:19;;;;;;;;;;;8.60;99.90;;;;;;5074675;28;19923;-84
2022/01/03 06:21:45;;;;;;;;;;;8.60;99.90;;;;;;5074453;28;19908;-85
2022/01/03 06:24:11;;;;;;;;;;;8.50;99.90;;;;;;5074699;28;19909;-84
2022/01/03 06:26:38;;;;;;;;;;;8.50;99.90;;;;;;5074637;28;19999;-83
2022/01/03 06:29:04;;;;;;;;;;;8.50;99.90;;;;;;5074486;28;20085;-85
2022/01/03 06:31:30;;;;;;;;;;;8.40;99.90;;;;;;5074307;28;19915;-83
2022/01/03 06:33:56;;;;;;;;;;;8.40;99.90;;;;;;5074424;28;19908;-84
2022/01/03 06:36:22;;;;;;;;;;;8.40;99.90;;;;;;5073694;28;19916;-83
2022/01/03 06:38:48;;;;;;;;;;;8.30;99.90;;;;;;5075926;28;19916;-84
2022/01/03 06:41:13;;;;;;;;;;;8.40;99.90;;;;;;5077220;28;19909;-84
2022/01/03 06:43:39;;;;;;;;;;;8.40;99.90;;;;;;5056364;28;19938;-86
2022/01/03 06:46:05;;;;;;;;;;;8.40;99.90;;;;;;5054912;28;19913;-89
2022/01/03 06:48:30;;;;;;;;;;;8.40;99.90;;;;;;5073778;28;19913;-85
2022/01/03 06:50:56;;;;;;;;;;;8.30;99.90;;;;;;5073516;28;19908;-90
2022/01/03 06:53:22;;;;;;;;;;;8.30;99.90;;;;;;5073873;28;19908;-83
2022/01/03 06:55:47;;;;;;;;;;;8.40;99.90;;;;;;5074205;28;19999;-84
2022/01/03 06:58:13;;;;;;;;;;;8.40;99.90;;;;;;5074154;28;19912;-87
2022/01/03 07:00:38;;;;;;;;;;;8.40;99.90;;;;;;5073527;28;20350;-83
2022/01/03 07:03:04;;;;;;;;;;;8.40;99.90;;;;;;5073965;28;19971;-82
2022/01/03 07:05:30;;;;;;;;;;;8.30;99.90;;;;;;5073883;28;19912;-83
2022/01/03 07:07:55;;;;;;;;;;;8.40;99.90;;;;;;5073952;28;19958;-83
2022/01/03 07:10:21;;;;;;;;;;;8.30;99.90;;;;;;5073622;28;19916;-83
2022/01/03 07:12:51;;;;;;;;;;;8.40;99.90;;;;;;5073483;28;19908;-86
2022/01/03 07:20:48;;;;;;;;;;;8.60;99.90;;;;;;5073370;28;20279;-88
2022/01/03 07:23:15;;;;;;;;;;;8.50;99.90;;;;;;5072731;28;19909;-84
2022/01/03 07:25:41;;;;;;;;;;;8.50;99.90;;;;;;5055691;28;20286;-83
2022/01/03 07:28:07;;;;;;;;;;;8.40;99.90;;;;;;5073716;28;19999;-88
2022/01/03 07:30:32;;;;;;;;;;;8.30;99.90;;;;;;5073690;28;19915;-82
2022/01/03 07:32:58;;;;;;;;;;;8.30;99.90;;;;;;5073671;28;19908;-83
2022/01/03 07:35:24;;;;;;;;;;;8.50;99.90;;;;;;5073281;28;19916;-85
2022/01/03 07:37:50;;;;;;;;;;;8.50;99.90;;;;;;5074404;28;19908;-90
2022/01/03 07:40:15;;;;;;;;;;;8.60;99.90;;;;;;5075112;28;19912;-87
2022/01/03 07:42:42;;;;;;;;;;;8.60;99.90;;;;;;5075051;28;19918;-90
2022/01/03 07:45:08;;;;;;;;;;;8.30;99.90;;;;;;5074587;28;19912;-90
2022/01/03 07:47:34;;;;;;;;;;;8.00;99.90;;;;;;5073551;28;19908;-89
2022/01/03 07:50:00;;;;;;;;;;;7.90;99.90;;;;;;5073851;28;19969;-86
2022/01/03 07:52:26;;;;;;;;;;;7.90;99.90;;;;;;5075136;28;19915;-87
2022/01/03 07:54:52;;;;;;;;;;;7.90;99.90;;;;;;5077260;28;19919;-91
2022/01/03 07:57:20;;;;;;;;;;;7.90;99.90;;;;;;5079094;28;20022;-84
2022/01/03 07:59:46;;;;;;;;;;;7.80;99.90;;;;;;5080543;28;19912;-94
2022/01/03 08:02:12;;;;;;;;;;;7.70;99.90;;;;;;5062169;28;20003;-80
2022/01/03 08:04:38;;;;;;;;;;;7.60;99.90;;;;;;5080233;28;19912;-79
2022/01/03 08:07:04;;;;;;;;;;;7.60;99.90;;;;;;5080218;28;19908;-84
2022/01/03 08:09:29;;;;;;;;;;;7.70;99.90;;;;;;5080038;28;20432;-79
2022/01/03 08:11:55;;;;;;;;;;;7.70;99.90;;;;;;5079916;28;20329;-88
2022/01/03 08:14:21;;;;;;;;;;;7.80;99.90;;;;;;5079943;28;19908;-83
2022/01/03 08:16:46;;;;;;;;;;;7.70;99.90;;;;;;5079222;28;19908;-86
2022/01/03 08:19:12;;;;;;;;;;;7.90;99.90;;;;;;5079102;28;19912;-86
2022/01/03 08:21:38;;;;;;;;;;;8.00;99.90;;;;;;5094789;28;19916;-85
2022/01/03 08:24:04;;;;;;;;;;;8.00;99.90;;;;;;5079170;28;19908;-85
2022/01/03 08:26:30;;;;;;;;;;;8.10;99.90;;;;;;5061012;28;19908;-85
2022/01/03 08:28:55;;;;;;;;;;;8.10;99.90;;;;;;5079001;28;19969;-84
2022/01/03 08:31:24;;;;;;;;;;;8.20;99.90;;;;;;5079453;28;19998;-86
2022/01/03 08:33:50;;;;;;;;;;;8.20;99.90;;;;;;5060206;28;19991;-85
2022/01/03 08:36:16;;;;;;;;;;;8.20;99.90;;;;;;5079678;28;20007;-84
2022/01/03 08:38:41;;;;;;;;;;;8.30;99.90;;;;;;5079760;28;19908;-88
2022/01/03 08:41:07;;;;;;;;;;;8.30;99.90;;;;;;5079693;28;19915;-88
2022/01/03 08:43:33;;;;;;;;;;;8.40;99.90;;;;;;5079607;28;19908;-87
2022/01/03 08:45:58;;;;;;;;;;;8.40;99.90;;;;;;5079131;28;19924;-87
2022/01/03 08:48:24;;;;;;;;;;;8.30;99.90;;;;;;5079425;28;19947;-86
2022/01/03 08:50:50;;;;;;;;;;;8.30;99.90;;;;;;5079487;28;19908;-86
2022/01/03 08:53:17;;;;;;;;;;;8.30;99.90;;;;;;5079632;28;19912;-88
2022/01/03 08:55:42;;;;;;;;;;;8.30;99.90;;;;;;5079671;28;20347;-88
2022/01/03 08:58:08;;;;;;;;;;;8.40;99.90;;;;;;5079654;28;19969;-85
2022/01/03 09:00:34;;;;;;;;;;;8.40;99.90;;;;;;5112252;28;20363;-85
2022/01/03 09:03:00;;;;;;;;;;;8.50;99.90;;;;;;5079044;28;19919;-85
2022/01/03 09:05:25;;;;;;;;;;;8.60;99.90;;;;;;5079292;28;19909;-84
2022/01/03 09:07:51;;;;;;;;;;;8.70;99.90;;;;;;5077902;28;20439;-85
2022/01/03 09:10:17;;;;;;;;;;;8.80;99.90;;;;;;5076002;28;20397;-84
2022/01/03 09:12:43;;;;;;;;;;;8.90;99.90;;;;;;5076141;28;19908;-84
2022/01/03 09:15:09;;;;;;;;;;;9.00;99.90;;;;;;5076073;28;20370;-84
2022/01/03 09:17:35;;;;;;;;;;;9.10;99.90;;;;;;5076163;28;19912;-83
2022/01/03 09:20:00;;;;;;;;;;;9.50;99.90;;;;;;5057887;28;19908;-84
2022/01/03 09:22:32;;;;;;;;;;;9.50;99.90;;;;;;5075940;28;19919;-84
2022/01/03 09:30:10;;;;;;;;;;;9.80;99.90;;;;;;5075640;28;19927;-83
2022/01/03 09:32:36;;;;;;;;;;;10.20;99.90;;;;;;5075708;28;19912;-85
2022/01/03 09:35:02;;;;;;;;;;;;;;;;;;5075759;28;19912;-83
2022/01/03 09:37:27;;;;;;;;;;;10.50;99.90;;;;;;5075829;28;19953;-84
2022/01/03 09:39:54;;;;;;;;;;;10.60;99.90;;;;;;5071975;28;19954;-83
2022/01/03 09:42:22;;;;;;;;;;;10.60;99.90;;;;;;5073302;28;19908;-84
2022/01/03 09:44:49;;;;;;;;;;;10.40;99.90;;;;;;5075005;28;19947;-84
2022/01/03 09:47:16;;;;;;;;;;;10.40;99.90;;;;;;5075461;28;20386;-83
2022/01/03 09:49:42;;;;;;;;;;;10.30;99.90;;;;;;5075447;28;19923;-83
2022/01/03 09:52:07;;;;;;;;;;;10.20;99.90;;;;;;5075382;28;20001;-83
2022/01/03 09:54:33;;;;;;;;;;;10.20;99.90;;;;;;5075259;28;19908;-82
2022/01/03 09:57:00;;;;;;;;;;;10.30;99.90;;;;;;5075450;28;19978;-82
2022/01/03 09:59:26;;;;;;;;;;;10.40;99.90;;;;;;5075416;28;20627;-82
2022/01/03 10:01:53;;;;;;;;;;;10.50;99.90;;;;;;5075275;28;19948;-82
2022/01/03 10:04:19;;;;;;;;;;;10.70;99.90;;;;;;5075266;28;19912;-82
2022/01/03 10:06:45;;;;;;;;;;;10.60;99.90;;;;;;5069677;28;19999;-80
2022/01/03 10:09:11;;;;;;;;;;;10.70;99.90;;;;;;5071624;28;19963;-83
2022/01/03 10:11:37;;;;;;;;;;;10.70;99.90;;;;;;5071606;28;19912;-82
2022/01/03 10:14:02;;;;;;;;;;;10.40;99.90;;;;;;5071461;28;19940;-79
2022/01/03 10:16:29;;;;;;;;;;;10.40;99.90;;;;;;5070562;28;19944;-80
2022/01/03 10:18:54;;;;;;;;;;;10.30;99.90;;;;;;5070919;28;19988;-79
2022/01/03 10:21:40;;;;;;;;;;;10.30;99.90;;;;;;5071396;28;20011;-79
2022/01/03 10:24:06;;;;;;;;;;;10.40;99.90;;;;;;5057189;28;19912;-77
2022/01/03 10:26:32;;;;;;;;;;;10.40;99.90;;;;;;5072682;28;20394;-77
2022/01/03 10:29:18;;;;;;;;;;;10.20;99.90;;;;;;5073293;28;20003;-78
2022/01/03 10:31:45;;;;;;;;;;;10.10;99.90;;;;;;5071657;28;19912;-80
2022/01/03 10:34:12;;;;;;;;;;;10.20;99.90;;;;;;5072023;28;19935;-79
2022/01/03 10:36:38;;;;;;;;;;;10.30;99.90;;;;;;5071576;28;20286;-78
2022/01/03 10:39:32;;;;;;;;;;;10.60;99.90;;;;;;5072438;28;20275;-78
2022/01/03 10:42:16;;;;;;;;;;;10.60;99.90;;;;;;5073364;28;20005;-79
2022/01/03 10:44:42;;;;;;;;;;;10.70;99.90;;;;;;5074465;28;19915;-78
2022/01/03 10:47:08;;;;;;;;;;;10.70;99.90;;;;;;5072861;28;20283;-78
2022/01/03 10:49:35;;;;;;;;;;;10.80;99.90;;;;;;5054710;28;19986;-79
2022/01/03 10:52:13;;;;;;;;;;;10.90;99.90;;;;;;5067682;28;19915;-80
2022/01/03 10:54:38;;;;;;;;;;;11.20;99.90;;;;;;5070487;28;19995;-81
2022/01/03 10:57:04;;;;;;;;;;;11.20;99.90;;;;;;5072011;28;19995;-78
2022/01/03 10:59:31;;;;;;;;;;;11.30;99.90;;;;;;5071057;28;20370;-80
2022/01/03 11:01:56;;;;;;;;;;;11.40;99.90;;;;;;5070508;28;19912;-80
2022/01/03 11:04:30;;;;;;;;;;;11.60;99.90;;;;;;5071244;28;19918;-80
2022/01/03 11:13:04;;;;;;;;;;;12.00;99.90;;;;;;5070599;28;19947;-82
2022/01/03 11:15:30;;;;;;;;;;;12.30;99.90;;;;;;5070287;28;19908;-82
2022/01/03 11:18:31;;;;;;;;;;;12.30;99.90;;;;;;5070760;28;19912;-82
2022/01/03 11:21:02;;;;;;;;;;;12.40;99.90;;;;;;5049033;28;19948;-82
2022/01/03 11:23:28;;;;;;;;;;;12.50;99.90;;;;;;5053525;28;20375;-79
2022/01/03 11:25:54;;;;;;;;;;;12.60;99.90;;;;;;5052779;28;19974;-82
2022/01/03 11:28:26;;;;;;;;;;;12.70;99.90;;;;;;5051551;28;19962;-80
2022/01/03 11:30:53;;;;;;;;;;;13.00;99.90;;;;;;5050851;28;19912;-82
2022/01/03 11:33:19;;;;;;;;;;;13.20;99.90;;;;;;5051787;28;19960;-79
2022/01/03 11:35:46;;;;;;;;;;;13.30;99.90;;;;;;5051401;28;19970;-82
2022/01/03 11:38:14;;;;;;;;;;;13.10;99.90;;;;;;5051759;28;19944;-79
2022/01/03 11:40:39;;;;;;;;;;;12.80;99.90;;;;;;5051411;28;19913;-82
2022/01/03 11:43:06;;;;;;;;;;;12.70;99.90;;;;;;5052826;28;20342;-82
2022/01/03 11:45:32;;;;;;;;;;;12.60;99.90;;;;;;5051739;28;20354;-80
2022/01/03 11:47:58;;;;;;;;;;;12.50;99.90;;;;;;5051045;28;19936;-82
2022/01/03 11:50:24;;;;;;;;;;;12.50;99.90;;;;;;5051230;28;20350;-80
2022/01/03 11:52:50;;;;;;;;;;;12.40;99.90;;;;;;5067064;28;20359;-83
2022/01/03 11:55:16;;;;;;;;;;;12.40;99.90;;;;;;5071242;28;20445;-82
2022/01/03 11:57:59;;;;;;;;;;;12.40;99.90;;;;;;5070869;28;19961;-82
2022/01/03 12:05:55;;;;;;;;;;;12.30;99.90;;;;;;5070904;28;19916;-80
2022/01/03 12:08:21;;;;;;;;;;;12.30;99.90;;;;;;5070846;28;20381;-81
2022/01/03 12:10:47;;;;;;;;;;;12.10;99.90;;;;;;5065962;28;19913;-77
2022/01/03 12:13:13;;;;;;;;;;;12.10;99.90;;;;;;5070743;28;19908;-81
2022/01/03 12:15:41;;;;;;;;;;;12.10;99.90;;;;;;5071341;28;19943;-80
2022/01/03 12:18:25;;;;;;;;;;;12.20;99.90;;;;;;5071796;28;19908;-82
2022/01/03 12:20:51;;;;;;;;;;;12.10;99.90;;;;;;5071171;28;19943;-80
2022/01/03 12:23:36;;;;;;;;;;;12.10;99.90;;;;;;5071017;28;20359;-80
2022/01/03 12:26:08;;;;;;;;;;;12.20;99.90;;;;;;5071308;28;20003;-82
2022/01/03 12:28:52;;;;;;;;;;;12.30;99.90;;;;;;5070983;28;19912;-79
2022/01/03 12:31:18;;;;;;;;;;;12.30;99.90;;;;;;5071046;28;19947;-83
2022/01/03 12:34:03;;;;;;;;;;;12.40;99.90;;;;;;5070680;28;20366;-83
2022/01/03 12:36:29;;;;;;;;;;;12.40;99.90;;;;;;5070633;28;19962;-77
2022/01/03 12:39:05;;;;;;;;;;;12.50;99.90;;;;;;5070661;28;20361;-84
2022/01/03 12:41:40;;;;;;;;;;;12.60;99.90;;;;;;5070928;28;19909;-84
2022/01/03 12:44:08;;;;;;;;;;;12.80;99.90;;;;;;5074359;28;20256;-77
2022/01/03 12:46:34;;;;;;;;;;;12.80;99.90;;;;;;5076311;28;19915;-84
2022/01/03 12:49:19;;;;;;;;;;;12.90;99.90;;;;;;5073497;28;19920;-80
2022/01/03 12:51:45;;;;;;;;;;;13.00;99.90;;;;;;5074025;28;20015;-87
2022/01/03 12:54:10;;;;;;;;;;;12.80;99.90;;;;;;5074347;28;19995;-85
2022/01/03 12:56:37;;;;;;;;;;;12.70;99.90;;;;;;5073561;28;19914;-81
2022/01/03 12:59:10;;;;;;;;;;;12.60;99.90;;;;;;5074191;28;19912;-87
2022/01/03 13:01:36;;;;;;;;;;;12.60;99.90;;;;;;5075625;28;19908;-81
2022/01/03 13:04:17;;;;;;;;;;;12.50;99.90;;;;;;5074045;28;19922;-87
2022/01/03 13:06:44;;;;;;;;;;;12.40;99.90;;;;;;5073270;28;19908;-83
2022/01/03 13:09:11;;;;;;;;;;;12.40;99.90;;;;;;5073657;28;20432;-81
2022/01/03 13:11:48;;;;;;;;;;;12.40;99.90;;;;;;5073721;28;19947;-88
2022/01/03 13:14:19;;;;;;;;;;;12.40;99.90;;;;;;5073602;28;20087;-81
2022/01/03 13:16:44;;;;;;;;;;;12.40;99.90;;;;;;5073587;28;19948;-81
2022/01/03 13:19:14;;;;;;;;;;;12.30;99.90;;;;;;5073916;28;19959;-89
2022/01/03 13:21:41;;;;;;;;;;;12.30;99.90;;;;;;5056033;28;19908;-90
2022/01/03 13:24:15;;;;;;;;;;;12.30;99.90;;;;;;5073904;28;20298;-86
2022/01/03 13:26:52;;;;;;;;;;;12.20;99.90;;;;;;5073045;28;19909;-89
2022/01/03 13:29:18;;;;;;;;;;;12.10;99.90;;;;;;5073797;28;19917;-84
2022/01/03 13:31:43;;;;;;;;;;;11.90;99.90;;;;;;5073420;28;19958;-82
2022/01/03 13:34:09;;;;;;;;;;;11.80;99.90;;;;;;5073418;28;19935;-85
2022/01/03 13:36:39;;;;;;;;;;;11.80;99.90;;;;;;5074004;28;19919;-87
2022/01/03 13:39:13;;;;;;;;;;;11.80;99.90;;;;;;5073998;28;19909;-87
2022/01/03 13:41:40;;;;;;;;;;;11.70;99.90;;;;;;5072550;28;20319;-81
2022/01/03 13:44:08;;;;;;;;;;;11.60;99.90;;;;;;5071166;28;19977;-84
2022/01/03 13:49:22;;;;;;;;;;;11.50;99.90;;;;;;5073216;28;19977;-89
2022/01/03 13:51:49;;;;;;;;;;;11.40;99.90;;;;;;5073806;28;20002;-88
2022/01/03 13:54:28;;;;;;;;;;;11.40;99.90;;;;;;5074282;28;19915;-84
2022/01/03 13:56:55;;;;;;;;;;;11.40;99.90;;;;;;5073378;28;20371;-84
2022/01/03 13:59:23;;;;;;;;;;;11.40;99.90;;;;;;5072914;28;20347;-83
2022/01/03 14:01:49;;;;;;;;;;;11.40;99.90;;;;;;5072559;28;19961;-81
2022/01/03 14:04:15;;;;;;;;;;;11.40;99.90;;;;;;5073320;28;19919;-93
2022/01/03 14:06:40;;;;;;;;;;;11.40;99.90;;;;;;5074303;28;20448;-88
2022/01/03 14:09:16;;;;;;;;;;;11.30;99.90;;;;;;5072891;28;19967;-80
2022/01/03 14:11:42;;;;;;;;;;;11.40;99.90;;;;;;5072561;28;19908;-87
2022/01/03 14:14:12;;;;;;;;;;;11.40;99.90;;;;;;5072852;28;20409;-82
2022/01/03 14:16:52;;;;;;;;;;;11.40;99.90;;;;;;5072556;28;20612;-82
2022/01/03 14:19:18;;;;;;;;;;;11.40;99.90;;;;;;5070670;28;19909;-86
2022/01/03 14:21:44;;;;;;;;;;;11.50;99.90;;;;;;5072656;28;19976;-88
2022/01/03 14:24:10;;;;;;;;;;;11.50;99.90;;;;;;5072338;28;20314;-83
2022/01/03 14:26:37;;;;;;;;;;;11.40;99.90;;;;;;5072492;28;19915;-77
2022/01/03 14:29:11;;;;;;;;;;;11.40;99.90;;;;;;5072582;28;19912;-84
2022/01/03 14:31:44;;;;;;;;;;;11.40;99.90;;;;;;5072588;28;19908;-81
2022/01/03 14:34:10;;;;;;;;;;;11.40;99.90;;;;;;5074480;28;20045;-81
2022/01/03 14:36:41;;;;;;;;;;;11.40;99.90;;;;;;5074462;28;20279;-81
2022/01/03 14:39:07;;;;;;;;;;;11.40;99.90;;;;;;5072070;28;19939;-83
2022/01/03 14:41:33;;;;;;;;;;;11.40;99.90;;;;;;5072797;28;19997;-84
2022/01/03 14:44:00;;;;;;;;;;;11.40;99.90;;;;;;5072104;28;20375;-85
2022/01/03 14:46:31;;;;;;;;;;;11.40;99.90;;;;;;5072366;28;20434;-84
2022/01/03 14:48:57;;;;;;;;;;;11.30;99.90;;;;;;5071864;28;19924;-86
2022/01/03 14:51:32;;;;;;;;;;;11.30;99.90;;;;;;5072122;28;19908;-88
2022/01/03 14:54:13;;;;;;;;;;;11.20;99.90;;;;;;5071847;28;19954;-85
2022/01/03 14:56:39;;;;;;;;;;;11.20;99.90;;;;;;5072082;28;19912;-86